Boise Air Terminal/Gowen field
KBOI : now visible

Airfield :











YOU CAN JOIN US ON...

 
LOGIN :

Register | Disclaimer

   EN    FR    IT 

 









Legend :    VFR   Marginal VFR   IFR   Intensive IFR   Very Intensive IFR
Visi :
Ceiling :
>= 8 km
>= 3000ft
5 to 8 km
1000 to 3000 ft
1500m to 5 km
500 to 1000 ft
800 to 1500m
200 to 500 ft
< 800m
< 200 ft
Symbols :   Thunderstorms  Fog  Heavy snow  Heavy precipitations  Wind > 20 kt







- Airport Elevation : 2871 ft
- IATA code : BOI


KBOI - Boise Air Terminal/Gowen field

CURRENT METAR :
  • 211053Z 29007KT 6SM -RA BR OVC034 08/06 A2966 RMK AO2 SLP031 P0012 T00830061

EXPIRED METARs :
  • 211023Z 26009KT 5SM -RA BR SCT028 OVC037 08/07 A2965 RMK AO2 P0005 T00830067
  • 211000Z 25011KT 6SM -RA FEW014 BKN028 OVC037 09/06 A2964 RMK AO2 P0001 T00890061
  • 210953Z 25015G23KT 7SM -RA BKN009 BKN015 OVC024 09/07 A2964 RMK AO2 SLP027 P0021 T00940067
  • 210935Z 25009G15KT 4SM -RA BR BKN009 BKN015 OVC024 09/08 A2963 RMK AO2 P0018 T00940083
  • 210913Z 18007KT 2 1/2SM RA BR SCT009 BKN015 OVC026 09/08 A2963 RMK AO2 P0008 T00940083
  • 210853Z 15003KT 6SM -RA BR OVC009 10/09 A2962 RMK AO2 SLP022 P0007 60014 T01000089 58007
  • 210843Z 16003KT 10SM -RA BKN009 BKN017 OVC023 10/09 A2962 RMK AO2 CIG 008V012 P0006 T01000089
  • 210803Z 19004KT 5SM RA BR SCT008 BKN016 OVC028 10/09 A2963 RMK AO2 P0001 T01000094
  • 210753Z 18004KT 8SM -RA FEW017 BKN030 OVC049 10/09 A2964 RMK AO2 SLP027 P0004 T01000094

TAF KBOI
Valid from the 21 at 10:00 until the 22 at 06:00 UTC


210954Z 2110/2206 25010KT P6SM -RA SCT015 OVC025
TEMPO 2110/2112 4SM RA BKN007 OVC015
FM211200 30007KT P6SM -RA SCT007 OVC025
FM211800 30008KT P6SM -SHRA OVC040
KZLC FIR / North America



MET'MAP, your aeronautical weather chart ! - Copyright ORBIFLY December 2007 - Disclaimer

ORBIFLY MET'MAP TEAM :

Programming & Development : Alexandra Zaïnal
Concept & Development : Baudouin d'Aumeries
Co-Development & Prog : Marc-Olivier Méhu
Technical & hardware support : Manuel Goepfert

Contact : metmap@orbifly.com




SOURCES & CREDITS :

   NOAA       Earth
Advisory